createdAt,value
2023-06-17T00:00:14.622Z,99987.06
2023-06-17T00:03:18.089Z,99979.50
2023-06-17T00:06:21.685Z,99980.34
2023-06-17T00:09:25.750Z,99977.22
2023-06-17T00:12:33.251Z,99984.44
2023-06-17T00:15:37.257Z,99979.19
2023-06-17T00:18:42.436Z,99981.34
2023-06-17T00:21:50.751Z,99987.53
2023-06-17T00:24:53.953Z,99983.13
2023-06-17T00:27:57.131Z,99986.56
2023-06-17T00:31:00.573Z,99980.00
2023-06-17T00:34:03.986Z,99975.28
2023-06-17T00:37:07.223Z,99976.78
2023-06-17T00:43:27.824Z,99968.28
2023-06-17T00:46:42.865Z,99966.72
2023-06-17T00:49:48.305Z,99971.97
2023-06-17T00:52:56.673Z,99976.88
2023-06-17T00:56:00.213Z,99972.06
2023-06-17T00:59:04.907Z,99965.59
2023-06-17T01:02:12.275Z,99964.72
2023-06-17T01:05:18.340Z,99961.97
2023-06-17T01:08:34.480Z,99968.63
2023-06-17T01:11:40.165Z,99964.34
2023-06-17T01:14:44.100Z,99962.38
2023-06-17T01:17:48.366Z,99966.00
2023-06-17T01:20:57.073Z,99973.38
2023-06-17T01:24:04.311Z,99970.31
2023-06-17T01:27:07.598Z,99972.22
2023-06-17T01:30:12.183Z,99967.94
2023-06-17T01:33:17.261Z,99967.47
2023-06-17T01:36:26.302Z,99974.25
2023-06-17T01:39:31.584Z,99974.44
2023-06-17T01:42:38.331Z,99976.91
2023-06-17T01:45:44.736Z,99981.63
2023-06-17T01:48:48.322Z,99992.63
2023-06-17T01:51:51.714Z,99986.72
2023-06-17T01:54:55.412Z,99991.28
2023-06-17T01:57:58.521Z,99983.97
2023-06-17T02:01:01.979Z,99978.03
2023-06-17T02:04:07.780Z,99977.63
2023-06-17T02:07:13.150Z,99975.75
2023-06-17T02:10:16.762Z,99975.91
2023-06-17T02:13:21.184Z,99976.84
2023-06-17T02:16:24.941Z,99967.75
2023-06-17T02:19:30.176Z,99972.41
2023-06-17T02:22:33.892Z,99970.19
2023-06-17T02:25:40.993Z,99964.22
2023-06-17T02:28:44.924Z,99967.44
2023-06-17T02:31:47.971Z,99955.97
2023-06-17T02:34:52.003Z,99965.78
2023-06-17T02:37:56.877Z,99966.34
2023-06-17T02:41:01.048Z,99962.41
2023-06-17T02:44:04.339Z,99965.59
2023-06-17T02:47:08.216Z,99965.94
2023-06-17T02:50:11.825Z,99971.41
2023-06-17T02:53:16.563Z,99963.38
2023-06-17T02:56:20.265Z,99962.44
2023-06-17T02:59:24.639Z,99963.97
2023-06-17T03:02:29.312Z,99970.25
2023-06-17T03:05:32.624Z,99962.06
2023-06-17T03:08:41.371Z,99965.44
2023-06-17T03:11:44.928Z,99965.00
2023-06-17T03:14:49.031Z,99969.41
2023-06-17T03:17:54.951Z,99977.16
2023-06-17T03:20:58.758Z,99983.25
2023-06-17T03:24:03.077Z,99984.94
2023-06-17T03:27:08.365Z,99992.38
2023-06-17T03:30:12.477Z,99989.31
2023-06-17T03:33:15.989Z,99986.25
2023-06-17T03:36:25.935Z,99991.41
2023-06-17T03:39:31.082Z,99988.81
2023-06-17T03:42:34.767Z,99999.94
2023-06-17T03:45:37.864Z,99990.00
2023-06-17T03:48:41.549Z,99999.28
2023-06-17T03:51:44.921Z,99995.16
2023-06-17T03:54:48.184Z,100002.06
2023-06-17T03:57:54.547Z,100000.97
2023-06-17T04:00:58.682Z,100002.03
2023-06-17T04:04:02.814Z,99996.88
2023-06-17T04:07:06.893Z,100004.16
2023-06-17T04:10:11.846Z,100008.84
2023-06-17T04:13:16.078Z,100004.50
2023-06-17T04:16:19.471Z,100009.78
2023-06-17T04:19:24.844Z,100008.25
2023-06-17T04:22:27.838Z,100016.09
2023-06-17T04:25:33.883Z,100010.69
2023-06-17T04:28:38.408Z,100016.66
2023-06-17T04:31:41.953Z,100010.63
2023-06-17T04:34:49.290Z,100017.06
2023-06-17T04:37:57.021Z,100017.19
2023-06-17T04:41:00.339Z,100023.63
2023-06-17T04:44:04.560Z,100019.22
2023-06-17T04:47:11.089Z,100022.53
2023-06-17T04:50:18.890Z,100019.06
2023-06-17T04:53:23.245Z,100027.00
2023-06-17T04:56:28.164Z,100023.91
2023-06-17T04:59:31.665Z,100031.34
2023-06-17T05:02:37.851Z,100041.69
2023-06-17T05:05:41.019Z,100041.22
2023-06-17T05:08:44.416Z,100050.53
2023-06-17T05:11:50.580Z,100053.50
2023-06-17T05:14:54.178Z,100059.81
2023-06-17T05:17:57.476Z,100052.72
2023-06-17T05:21:05.114Z,100058.50
2023-06-17T05:24:08.609Z,100062.88
2023-06-17T05:27:12.585Z,100066.16
2023-06-17T05:30:16.313Z,100060.19
2023-06-17T05:33:25.746Z,100054.53
2023-06-17T05:36:29.235Z,100059.28
2023-06-17T05:39:32.473Z,100068.00
2023-06-17T05:42:35.911Z,100050.25
2023-06-17T05:45:40.747Z,100059.06
2023-06-17T05:48:44.417Z,100051.72
2023-06-17T05:51:48.200Z,100050.28
2023-06-17T05:54:51.807Z,100052.03
2023-06-17T05:57:55.601Z,100060.31
2023-06-17T06:00:59.276Z,100068.03
2023-06-17T06:04:02.745Z,100078.16
2023-06-17T06:07:06.715Z,100074.88
2023-06-17T06:10:10.001Z,100076.84
2023-06-17T06:13:17.564Z,100078.75
2023-06-17T06:16:21.773Z,100088.69
2023-06-17T06:19:25.418Z,100077.31
2023-06-17T06:22:28.717Z,100070.44
2023-06-17T06:25:32.179Z,100073.75
2023-06-17T06:28:35.429Z,100070.41
2023-06-17T06:31:39.204Z,100071.69
2023-06-17T06:34:42.963Z,100081.19
2023-06-17T06:37:46.366Z,100081.00
2023-06-17T06:40:50.045Z,100088.81
2023-06-17T06:43:54.022Z,100083.88
2023-06-17T06:46:57.511Z,100081.00
2023-06-17T06:50:01.304Z,100087.56
2023-06-17T06:53:04.966Z,100086.16
2023-06-17T06:56:08.370Z,100087.31
2023-06-17T06:59:16.128Z,100093.50
2023-06-17T07:02:19.680Z,100094.72
2023-06-17T07:05:26.181Z,100090.13
2023-06-17T07:08:35.832Z,100092.03
2023-06-17T07:11:39.884Z,100100.38
2023-06-17T07:14:43.491Z,100093.28
2023-06-17T07:17:48.654Z,100090.19
2023-06-17T07:20:52.170Z,100094.59
2023-06-17T07:23:58.536Z,100096.63
2023-06-17T07:27:01.748Z,100093.44
2023-06-17T07:30:06.701Z,100097.69
2023-06-17T07:33:10.196Z,100100.69
2023-06-17T07:36:14.232Z,100102.91
2023-06-17T07:39:18.017Z,100098.66
2023-06-17T07:42:21.596Z,100099.22
2023-06-17T07:45:25.397Z,100105.13
2023-06-17T07:48:29.226Z,100103.13
2023-06-17T07:51:32.586Z,100091.72
2023-06-17T07:54:36.958Z,100094.66
2023-06-17T07:57:40.837Z,100096.25
2023-06-17T08:00:44.108Z,100095.91
2023-06-17T08:03:47.318Z,100093.72
2023-06-17T08:06:50.567Z,100096.28
2023-06-17T08:09:56.968Z,100096.03
2023-06-17T08:13:00.046Z,100096.22
2023-06-17T08:16:03.801Z,100087.22
2023-06-17T08:19:07.425Z,100093.81
2023-06-17T08:22:11.741Z,100098.50
2023-06-17T08:25:17.928Z,100100.78
2023-06-17T08:28:22.473Z,100101.88
2023-06-17T08:31:27.554Z,100098.50
2023-06-17T08:34:33.669Z,100100.78
2023-06-17T08:37:37.196Z,100101.91
2023-06-17T08:40:47.098Z,100096.78
2023-06-17T08:43:53.233Z,100102.56
2023-06-17T08:46:58.750Z,100101.38
2023-06-17T08:50:03.877Z,100103.22
2023-06-17T08:53:07.704Z,100102.81
2023-06-17T08:56:12.439Z,100102.81
2023-06-17T08:59:16.053Z,100106.31
2023-06-17T09:02:19.479Z,100103.53
2023-06-17T09:05:22.938Z,100097.72
2023-06-17T09:08:26.581Z,100108.31
2023-06-17T09:11:32.169Z,100099.50
2023-06-17T09:14:35.764Z,100106.84
2023-06-17T09:17:40.278Z,100105.84
2023-06-17T09:20:43.362Z,100108.13
2023-06-17T09:23:56.274Z,100105.84
2023-06-17T09:26:59.563Z,100114.16
2023-06-17T09:30:12.103Z,100111.13
2023-06-17T09:33:20.022Z,100108.63
2023-06-17T09:36:24.285Z,100111.41
2023-06-17T09:39:32.327Z,100105.59
2023-06-17T09:42:35.726Z,100104.63
2023-06-17T09:45:41.527Z,100110.63
2023-06-17T09:48:45.888Z,100109.38
2023-06-17T09:51:50.258Z,100108.66
2023-06-17T09:54:54.739Z,100102.84
2023-06-17T09:58:01.205Z,100107.13
2023-06-17T10:01:08.011Z,100110.16
2023-06-17T10:04:11.196Z,100111.88
2023-06-17T10:07:15.895Z,100109.13
2023-06-17T10:10:19.889Z,100107.63
2023-06-17T10:13:23.962Z,100107.63
2023-06-17T10:16:29.965Z,100100.31
2023-06-17T10:19:36.142Z,100095.03
2023-06-17T10:22:40.910Z,100110.34
2023-06-17T10:25:44.300Z,100106.09
2023-06-17T10:28:59.770Z,100107.38
2023-06-17T10:32:26.104Z,100102.28
2023-06-17T10:35:39.124Z,100106.47
2023-06-17T10:38:42.364Z,100099.69
2023-06-17T10:41:53.084Z,100093.78
2023-06-17T10:44:56.171Z,100098.75
2023-06-17T10:48:24.403Z,100097.06
2023-06-17T10:51:41.007Z,100103.97
2023-06-17T10:54:56.777Z,100099.16
2023-06-17T10:58:00.135Z,100097.03
2023-06-17T11:01:08.962Z,100089.84
2023-06-17T11:04:13.525Z,100092.28
2023-06-17T11:07:16.882Z,100094.13
2023-06-17T11:10:25.879Z,100093.78
2023-06-17T11:13:29.382Z,100101.31
2023-06-17T11:16:34.055Z,100113.41
2023-06-17T11:19:37.333Z,100093.38
2023-06-17T11:22:41.315Z,100092.09
2023-06-17T11:25:45.940Z,100099.94
2023-06-17T11:28:49.967Z,100099.28
2023-06-17T11:31:54.553Z,100078.66
2023-06-17T11:34:58.025Z,100088.22
2023-06-17T11:38:01.243Z,100089.41
2023-06-17T11:41:04.387Z,100087.25
2023-06-17T11:44:08.220Z,100079.56
2023-06-17T11:47:11.668Z,100075.97
2023-06-17T11:50:15.439Z,100075.06
2023-06-17T11:53:48.191Z,100066.31
2023-06-17T11:56:56.127Z,100057.00
2023-06-17T12:00:06.100Z,100063.59
2023-06-17T12:03:15.806Z,100070.59
2023-06-17T12:06:20.762Z,100060.19
2023-06-17T12:09:24.163Z,100065.00
2023-06-17T12:12:28.467Z,100055.72
2023-06-17T12:15:36.749Z,100051.00
2023-06-17T12:18:50.243Z,100059.56
2023-06-17T12:21:53.549Z,100061.69
2023-06-17T12:24:56.653Z,100050.16
2023-06-17T12:28:00.312Z,100046.25
2023-06-17T12:31:03.937Z,100047.69
2023-06-17T12:34:07.904Z,100046.41
2023-06-17T12:37:11.334Z,100050.25
2023-06-17T12:40:14.501Z,100055.38
2023-06-17T12:43:17.744Z,100044.91
2023-06-17T12:46:21.494Z,100047.19
2023-06-17T12:49:24.638Z,100048.91
2023-06-17T12:52:28.792Z,100053.47
2023-06-17T12:55:32.173Z,100050.19
2023-06-17T12:58:35.748Z,100049.72
2023-06-17T13:01:38.917Z,100048.50
2023-06-17T13:04:42.157Z,100041.84
2023-06-17T13:07:45.231Z,100056.56
2023-06-17T13:10:48.815Z,100054.75
2023-06-17T13:13:52.518Z,100060.44
2023-06-17T13:16:56.106Z,100056.41
2023-06-17T13:19:59.677Z,100044.34
2023-06-17T13:23:03.140Z,100048.06
2023-06-17T13:26:06.273Z,100040.75
2023-06-17T13:29:09.716Z,100041.81
2023-06-17T13:32:13.370Z,100036.91
2023-06-17T13:35:16.848Z,100037.63
2023-06-17T13:38:19.912Z,100041.19
2023-06-17T13:41:23.228Z,100043.47
2023-06-17T13:44:26.469Z,100042.84
2023-06-17T13:47:29.561Z,100043.59
2023-06-17T13:50:32.560Z,100035.56
2023-06-17T13:53:35.605Z,100033.13
2023-06-17T13:56:38.833Z,100044.56
2023-06-17T13:59:42.160Z,100040.50
2023-06-17T14:02:45.372Z,100034.16
2023-06-17T14:05:48.889Z,100041.91
2023-06-17T14:08:55.395Z,100029.28
2023-06-17T14:11:58.825Z,100033.78
2023-06-17T14:15:02.269Z,100037.75
2023-06-17T14:18:06.093Z,100047.81
2023-06-17T14:21:29.862Z,100042.31
2023-06-17T14:24:36.771Z,100041.69
2023-06-17T14:27:44.132Z,100043.13
2023-06-17T14:30:49.652Z,100038.47
2023-06-17T14:33:53.125Z,100040.78
2023-06-17T14:36:59.934Z,100041.00
2023-06-17T14:40:03.266Z,100044.28
2023-06-17T14:43:08.426Z,100040.28
2023-06-17T14:46:12.469Z,100033.97
2023-06-17T14:49:15.563Z,100042.03
2023-06-17T14:52:19.918Z,100033.00
2023-06-17T14:55:23.443Z,100020.72
2023-06-17T14:58:26.976Z,100017.81
2023-06-17T15:01:31.644Z,100017.19
2023-06-17T15:04:34.771Z,100021.22
2023-06-17T15:07:37.904Z,100018.41
2023-06-17T15:10:41.009Z,100022.25
2023-06-17T15:13:44.108Z,100009.97
2023-06-17T15:16:48.840Z,100015.03
2023-06-17T15:19:52.116Z,100012.94
2023-06-17T15:22:55.624Z,100013.50
2023-06-17T15:25:58.820Z,100013.72
2023-06-17T15:29:01.992Z,100003.91
2023-06-17T15:32:06.065Z,100005.69
2023-06-17T15:35:09.341Z,99999.09
2023-06-17T15:38:12.673Z,100012.25
2023-06-17T15:41:16.327Z,100019.75
2023-06-17T15:44:20.205Z,100012.25
2023-06-17T15:47:23.457Z,100009.69
2023-06-17T15:50:26.668Z,100013.28
2023-06-17T15:53:30.060Z,100008.66
2023-06-17T15:56:35.981Z,100012.00
2023-06-17T15:59:39.335Z,100005.97
2023-06-17T16:02:42.619Z,100009.72
2023-06-17T16:05:45.667Z,100015.03
2023-06-17T16:08:49.110Z,100012.25
2023-06-17T16:11:52.147Z,100010.81
2023-06-17T16:14:55.862Z,100021.53
2023-06-17T16:17:59.123Z,100023.41
2023-06-17T16:21:02.934Z,100029.22
2023-06-17T16:24:06.383Z,100027.47
2023-06-17T16:27:10.683Z,100030.97
2023-06-17T16:30:13.776Z,100038.81
2023-06-17T16:33:17.072Z,100037.31
2023-06-17T16:36:20.714Z,100036.03
2023-06-17T16:39:23.911Z,100048.44
2023-06-17T16:42:27.943Z,100047.13
2023-06-17T16:45:31.057Z,100056.00
2023-06-17T16:48:34.593Z,100064.59
2023-06-17T16:51:37.949Z,100067.63
2023-06-17T16:54:41.533Z,100080.53
2023-06-17T16:57:45.018Z,100074.75
2023-06-17T17:00:48.120Z,100070.44
2023-06-17T17:03:51.482Z,100084.09
2023-06-17T17:06:54.735Z,100078.81
2023-06-17T17:09:58.325Z,100080.31
2023-06-17T17:13:01.732Z,100085.91
2023-06-17T17:16:05.642Z,100087.94
2023-06-17T17:19:08.903Z,100091.22
2023-06-17T17:22:12.272Z,100093.50
2023-06-17T17:25:16.311Z,100100.31
2023-06-17T17:28:19.538Z,100095.78
2023-06-17T17:31:22.768Z,100099.06
2023-06-17T17:34:25.983Z,100094.03
2023-06-17T17:37:29.353Z,100102.34
2023-06-17T17:40:32.325Z,100114.19
2023-06-17T17:43:35.774Z,100114.69
2023-06-17T17:46:39.274Z,100120.97
2023-06-17T17:49:42.796Z,100116.69
2023-06-17T17:52:46.701Z,100120.72
2023-06-17T17:55:49.932Z,100126.28
2023-06-17T17:58:53.179Z,100118.44
2023-06-17T18:01:56.346Z,100128.25
2023-06-17T18:04:59.610Z,100125.00
2023-06-17T18:08:02.972Z,100131.78
2023-06-17T18:11:05.988Z,100132.28
2023-06-17T18:14:09.119Z,100129.50
2023-06-17T18:17:12.727Z,100134.50
2023-06-17T18:20:15.917Z,100134.25
2023-06-17T18:23:19.001Z,100131.41
2023-06-17T18:26:22.672Z,100145.47
2023-06-17T18:29:26.106Z,100144.91
2023-06-17T18:32:29.154Z,100156.72
2023-06-17T18:35:32.514Z,100154.88
2023-06-17T18:38:35.767Z,100162.38
2023-06-17T18:41:43.201Z,100152.50
2023-06-17T18:44:46.652Z,100168.25
2023-06-17T18:47:50.092Z,100164.41
2023-06-17T18:50:53.323Z,100164.53
2023-06-17T18:53:56.568Z,100174.09
2023-06-17T18:56:59.904Z,100178.03
2023-06-17T19:00:04.087Z,100181.47
2023-06-17T19:03:08.964Z,100173.56
2023-06-17T19:06:12.213Z,100183.78
2023-06-17T19:09:15.439Z,100183.25
2023-06-17T19:12:19.105Z,100187.13
2023-06-17T19:15:22.463Z,100190.19
2023-06-17T19:18:34.030Z,100188.13
2023-06-17T19:21:37.037Z,100192.84
2023-06-17T19:24:40.252Z,100199.72
2023-06-17T19:27:43.337Z,100198.34
2023-06-17T19:30:48.286Z,100206.00
2023-06-17T19:33:51.239Z,100216.91
2023-06-17T19:36:55.410Z,100218.97
2023-06-17T19:39:58.749Z,100221.13
2023-06-17T19:43:02.042Z,100219.81
2023-06-17T19:46:05.385Z,100221.91
2023-06-17T19:49:08.489Z,100225.38
2023-06-17T19:52:11.837Z,100226.59
2023-06-17T19:55:16.196Z,100225.38
2023-06-17T19:58:19.738Z,100223.63
2023-06-17T20:01:24.443Z,100230.59
2023-06-17T20:04:28.280Z,100229.81
2023-06-17T20:07:31.567Z,100221.94
2023-06-17T20:10:38.788Z,100226.03
2023-06-17T20:13:41.879Z,100224.72
2023-06-17T20:16:45.990Z,100216.97
2023-06-17T20:19:49.401Z,100222.84
2023-06-17T20:22:53.167Z,100225.97
2023-06-17T20:25:56.487Z,100207.34
2023-06-17T20:28:59.665Z,100219.59
2023-06-17T20:32:02.992Z,100217.69
2023-06-17T20:35:06.532Z,100215.00
2023-06-17T20:38:10.155Z,100215.94
2023-06-17T20:41:16.663Z,100215.19
2023-06-17T20:44:19.927Z,100217.84
2023-06-17T20:47:24.162Z,100212.78
2023-06-17T20:50:28.076Z,100215.47
2023-06-17T20:53:31.312Z,100211.69
2023-06-17T20:56:37.444Z,100204.19
2023-06-17T20:59:40.816Z,100204.47
2023-06-17T21:02:44.374Z,100202.66
2023-06-17T21:05:47.972Z,100212.91
2023-06-17T21:08:51.350Z,100215.56
2023-06-17T21:11:54.814Z,100220.81
2023-06-17T21:14:57.824Z,100218.97
2023-06-17T21:18:01.392Z,100214.28
2023-06-17T21:21:04.561Z,100204.00
2023-06-17T21:24:07.874Z,100215.94
2023-06-17T21:27:12.243Z,100215.22
2023-06-17T21:30:15.830Z,100219.59
2023-06-17T21:33:20.170Z,100218.66
2023-06-17T21:36:23.348Z,100216.38
2023-06-17T21:39:26.820Z,100222.22
2023-06-17T21:42:29.915Z,100223.72
2023-06-17T21:45:33.144Z,100224.94
2023-06-17T21:48:36.555Z,100236.28
2023-06-17T21:51:39.947Z,100234.78
2023-06-17T21:54:42.978Z,100242.25
2023-06-17T21:57:46.148Z,100231.63
2023-06-17T22:00:50.666Z,100231.56
2023-06-17T22:03:53.770Z,100237.84
2023-06-17T22:06:57.103Z,100232.50
2023-06-17T22:10:00.228Z,100234.69
2023-06-17T22:13:03.643Z,100236.09
2023-06-17T22:16:07.183Z,100232.72
2023-06-17T22:19:10.085Z,100235.00
2023-06-17T22:22:13.482Z,100244.09
2023-06-17T22:25:16.714Z,100241.06
2023-06-17T22:28:19.840Z,100232.28
2023-06-17T22:31:23.243Z,100237.19
2023-06-17T22:34:26.436Z,100238.44
2023-06-17T22:37:29.784Z,100239.22
2023-06-17T22:40:35.789Z,100237.84
2023-06-17T22:43:38.801Z,100234.53
2023-06-17T22:46:42.396Z,100245.34
2023-06-17T22:49:46.676Z,100240.34
2023-06-17T22:52:50.413Z,100240.03
2023-06-17T22:55:53.404Z,100237.28
2023-06-17T22:58:56.665Z,100235.75
2023-06-17T23:02:02.239Z,100239.72
2023-06-17T23:05:06.101Z,100235.16
2023-06-17T23:08:09.006Z,100227.81
2023-06-17T23:11:12.134Z,100229.19
2023-06-17T23:14:14.955Z,100216.97
2023-06-17T23:17:18.263Z,100228.84
2023-06-17T23:20:21.386Z,100229.97
2023-06-17T23:23:24.584Z,100229.19
2023-06-17T23:26:27.968Z,100228.25
2023-06-17T23:29:31.338Z,100232.25
2023-06-17T23:32:34.693Z,100222.94
2023-06-17T23:35:38.055Z,100217.91
2023-06-17T23:38:41.800Z,100233.47
2023-06-17T23:41:45.097Z,100235.28
2023-06-17T23:44:49.678Z,100233.00
2023-06-17T23:47:53.423Z,100230.88
2023-06-17T23:50:56.935Z,100241.84
2023-06-17T23:54:01.612Z,100238.78
2023-06-17T23:57:05.825Z,100237.59
